Time;durP1;ratioP1;P1;durP2;ratioP2;P2;SDS_P1;SDS_P2;PMS_P1;PMS_P2;Temp;Humidity;BMP_temperature;BMP_pressure;BME280_temperature;BME280_humidity;BME280_pressure;Samples;Min_cycle;Max_cycle;Signal;HPM_P1;HPM_P2
2023/02/07 00:01:34;;;;;;;252.30;120.50;;;;;;;-11.90;68.89;99466.32;108794;1254;111706;-74
2023/02/07 00:04:03;;;;;;;228.60;108.30;;;;;;;-11.87;68.87;99462.98;108817;1256;109978;-75
2023/02/07 00:06:34;;;;;;;230.50;109.10;;;;;;;-11.85;68.82;99459.66;108497;1257;107066;-74
2023/02/07 00:09:05;;;;;;;186.40;97.50;;;;;;;-11.80;69.02;99457.81;108482;1256;95631;-74
2023/02/07 00:11:34;;;;;;;230.30;107.60;;;;;;;-11.76;69.05;99451.86;108563;1255;96118;-75
2023/02/07 00:14:02;;;;;;;217.70;106.20;;;;;;;-11.73;69.14;99449.36;108527;1257;112142;-74
2023/02/07 00:16:30;;;;;;;224.30;107.60;;;;;;;-11.75;69.10;99447.66;108560;1257;110165;-74
2023/02/07 00:18:58;;;;;;;241.00;110.50;;;;;;;-11.77;69.03;99446.48;108538;1256;107272;-75
2023/02/07 00:21:29;;;;;;;243.80;115.50;;;;;;;-11.72;69.12;99443.09;108486;1255;95604;-74
2023/02/07 00:24:04;;;;;;;197.40;93.90;;;;;;;-11.70;69.20;99443.40;108547;1256;96047;-73
2023/02/07 00:26:32;;;;;;;245.40;114.30;;;;;;;-11.64;69.20;99451.11;108570;1257;103557;-74
2023/02/07 00:29:00;;;;;;;237.10;114.80;;;;;;;-11.59;69.21;99456.76;108525;1256;110026;-74
2023/02/07 00:31:31;;;;;;;244.80;117.00;;;;;;;-11.57;69.19;99453.07;108528;1256;108471;-73
2023/02/07 00:34:02;;;;;;;189.80;90.60;;;;;;;-11.54;69.21;99445.90;108508;1255;95749;-75
2023/02/07 00:36:33;;;;;;;173.50;86.10;;;;;;;-11.52;69.40;99441.88;108550;1256;96064;-75
2023/02/07 00:39:05;;;;;;;240.30;115.10;;;;;;;-11.52;69.31;99438.41;108624;1251;111818;-74
2023/02/07 00:41:33;;;;;;;242.40;112.40;;;;;;;-11.50;69.41;99435.77;108889;1255;109505;-75
2023/02/07 00:44:01;;;;;;;245.30;116.00;;;;;;;-11.48;69.29;99429.66;108795;1251;108411;-75
2023/02/07 00:46:30;;;;;;;242.20;114.00;;;;;;;-11.47;69.42;99422.14;108793;1253;95624;-74
2023/02/07 00:48:58;;;;;;;239.70;114.80;;;;;;;-11.45;69.33;99404.56;108823;1251;96028;-75
2023/02/07 00:51:26;;;;;;;221.90;107.10;;;;;;;-11.42;69.41;99403.30;108881;1254;111045;-75
2023/02/07 00:53:56;;;;;;;217.90;103.80;;;;;;;-11.39;69.63;99404.28;108816;1251;109294;-74
2023/02/07 00:56:26;;;;;;;229.10;108.00;;;;;;;-11.32;69.60;99399.98;108815;1251;108573;-73
2023/02/07 00:58:54;;;;;;;240.70;115.30;;;;;;;-11.35;69.52;99396.75;108890;1255;95663;-75
2023/02/07 01:01:26;;;;;;;239.60;113.20;;;;;;;-11.38;69.44;99401.15;108730;1251;96193;-74
2023/02/07 01:03:55;;;;;;;184.70;89.10;;;;;;;-11.38;69.49;99395.08;108868;1253;111105;-74
2023/02/07 01:06:23;;;;;;;239.60;110.20;;;;;;;-11.38;69.38;99386.04;108875;1251;108913;-74
2023/02/07 01:08:51;;;;;;;477.10;158.70;;;;;;;-11.40;69.36;99379.80;108836;1251;107058;-75
2023/02/07 01:11:22;;;;;;;354.10;136.30;;;;;;;-11.39;69.44;99384.31;108860;1255;95588;-75
2023/02/07 01:13:50;;;;;;;243.80;103.60;;;;;;;-11.37;69.42;99387.77;108645;1251;96585;-74
2023/02/07 01:16:35;;;;;;;261.80;124.20;;;;;;;-11.38;69.26;99379.26;108870;1251;112436;-76
2023/02/07 01:19:07;;;;;;;252.80;117.40;;;;;;;-11.41;69.12;99379.64;108881;1251;101325;-75
2023/02/07 01:21:36;;;;;;;233.60;110.20;;;;;;;-11.45;69.01;99378.15;108869;1251;99946;-75
2023/02/07 01:24:04;;;;;;;280.90;117.10;;;;;;;-11.49;68.80;99384.67;108825;1251;95607;-74
2023/02/07 01:26:32;;;;;;;275.50;115.60;;;;;;;-11.53;68.89;99381.09;108685;1253;96165;-73
2023/02/07 01:29:01;;;;;;;260.90;112.20;;;;;;;-11.58;68.68;99374.05;108845;1251;112082;-74
2023/02/07 01:31:29;;;;;;;258.30;108.90;;;;;;;-11.64;68.54;99373.30;108865;1251;109874;-74
2023/02/07 01:34:00;;;;;;;237.40;105.20;;;;;;;-11.72;68.46;99375.86;108641;1251;108171;-75
2023/02/07 01:36:30;;;;;;;232.70;105.40;;;;;;;-11.79;68.38;99381.05;108632;1251;95679;-74
2023/02/07 01:38:58;;;;;;;227.30;103.40;;;;;;;-11.83;68.38;99384.07;108854;1251;97096;-74
2023/02/07 01:41:27;;;;;;;231.00;104.50;;;;;;;-11.90;68.23;99384.73;108649;1257;111685;-75
2023/02/07 01:44:02;;;;;;;219.80;113.30;;;;;;;-12.00;68.02;99387.48;108850;1251;109749;-75
2023/02/07 01:46:33;;;;;;;225.30;105.60;;;;;;;-12.06;68.17;99379.77;108869;1251;108568;-74
2023/02/07 01:49:09;;;;;;;221.40;102.90;;;;;;;-12.11;68.07;99368.91;108832;1251;95614;-75
2023/02/07 01:51:42;;;;;;;208.00;98.00;;;;;;;-12.14;67.99;99357.32;108902;1251;96025;-74
2023/02/07 01:54:13;;;;;;;194.50;86.30;;;;;;;-12.24;67.74;99351.40;108529;1250;112575;-74
2023/02/07 01:56:46;;;;;;;182.30;85.00;;;;;;;-12.43;67.61;99341.30;108856;1251;109680;-75
2023/02/07 01:59:15;;;;;;;198.20;92.60;;;;;;;-12.56;67.79;99345.13;108867;1251;99972;-75
2023/02/07 02:01:45;;;;;;;212.20;100.20;;;;;;;-12.65;67.82;99353.92;108831;1251;95558;-74
2023/02/07 02:04:13;;;;;;;210.50;97.60;;;;;;;-12.71;68.05;99354.55;108828;1251;96287;-76
2023/02/07 02:06:43;;;;;;;216.00;94.60;;;;;;;-12.71;67.91;99350.91;108876;1251;112226;-75
2023/02/07 02:09:14;;;;;;;212.10;94.80;;;;;;;-12.76;67.92;99351.83;108890;1251;109781;-75
2023/02/07 02:12:00;;;;;;;210.40;93.20;;;;;;;-12.76;67.84;99354.09;108810;1251;100082;-74
2023/02/07 02:15:07;;;;;;;200.60;91.80;;;;;;;-12.77;67.76;99350.45;108821;1251;95668;-75
2023/02/07 02:17:53;;;;;;;213.90;89.00;;;;;;;-12.83;67.67;99343.27;108333;1257;96085;-74
2023/02/07 02:20:40;;;;;;;194.70;83.60;;;;;;;-12.92;67.80;99347.39;108320;1257;103359;-74
2023/02/07 02:23:37;;;;;;;175.20;78.40;;;;;;;-12.94;67.78;99352.44;108354;1257;101422;-75
2023/02/07 02:26:15;;;;;;;166.40;76.20;;;;;;;-12.97;67.73;99356.11;107901;1265;100355;-75
2023/02/07 02:29:06;;;;;;;163.80;75.80;;;;;;;-12.99;67.63;99357.34;107879;1265;95735;-75
2023/02/07 02:31:52;;;;;;;170.30;76.20;;;;;;;-13.01;67.51;99357.88;107480;1270;96197;-75
2023/02/07 02:34:39;;;;;;;173.00;76.80;;;;;;;-13.06;67.42;99366.10;107475;1270;103378;-75
2023/02/07 02:37:33;;;;;;;177.30;75.60;;;;;;;-13.13;67.37;99374.00;107485;1270;101247;-76
2023/02/07 02:40:14;;;;;;;173.90;76.40;;;;;;;-13.23;67.14;99372.75;106840;1276;100158;-75
2023/02/07 02:42:54;;;;;;;164.50;76.20;;;;;;;-13.31;67.28;99373.19;106819;1277;96006;-75
2023/02/07 02:45:45;;;;;;;193.30;80.50;;;;;;;-13.37;67.19;99384.34;106870;1277;97239;-74
2023/02/07 02:48:20;;;;;;;171.50;78.20;;;;;;;-13.43;67.25;99390.65;106839;1276;103696;-75
2023/02/07 02:50:49;;;;;;;190.40;79.30;;;;;;;-13.47;67.31;99393.45;106848;1276;109969;-74
2023/02/07 02:53:17;;;;;;;184.70;78.10;;;;;;;-13.50;67.23;99394.69;106871;1276;108777;-76
2023/02/07 02:56:19;;;;;;;184.10;78.60;;;;;;;-13.52;67.06;99397.83;107101;1272;95662;-75
2023/02/07 02:58:56;;;;;;;145.10;65.20;;;;;;;-13.56;67.09;99402.37;107214;1273;96236;-75
2023/02/07 03:01:34;;;;;;;144.00;63.60;;;;;;;-13.59;66.84;99407.06;107223;1273;103690;-75
2023/02/07 03:04:32;;;;;;;140.70;63.50;;;;;;;-13.68;66.87;99407.50;107599;1267;101373;-75
2023/02/07 03:07:11;;;;;;;142.90;64.60;;;;;;;-13.79;67.24;99407.43;106957;1272;101152;-74
2023/02/07 03:09:56;;;;;;;135.70;61.50;;;;;;;-13.79;67.32;99406.05;107680;1267;95980;-74
2023/02/07 03:12:48;;;;;;;133.10;58.50;;;;;;;-13.80;67.53;99407.96;107796;1267;96245;-75
2023/02/07 03:15:27;;;;;;;120.10;56.10;;;;;;;-13.76;67.78;99416.91;107871;1265;103564;-75
2023/02/07 03:18:22;;;;;;;119.00;53.30;;;;;;;-13.76;67.73;99415.72;108173;1259;101410;-75
2023/02/07 03:20:56;;;;;;;115.60;53.20;;;;;;;-13.74;68.04;99417.25;108231;1259;99899;-75
2023/02/07 03:23:25;;;;;;;108.30;60.80;;;;;;;-13.67;68.36;99419.10;108226;1259;95682;-75
2023/02/07 03:25:56;;;;;;;130.60;58.70;;;;;;;-13.58;68.46;99416.41;108240;1259;96632;-74
2023/02/07 03:28:26;;;;;;;145.50;63.00;;;;;;;-13.50;68.68;99414.77;108239;1260;112294;-74
2023/02/07 03:30:56;;;;;;;142.90;65.20;;;;;;;-13.42;68.75;99417.30;108253;1258;110145;-75
2023/02/07 03:33:25;;;;;;;144.20;67.40;;;;;;;-13.35;68.87;99416.70;108241;1259;108243;-75
2023/02/07 03:36:03;;;;;;;149.90;67.90;;;;;;;-13.27;68.94;99411.95;108217;1259;95661;-74
2023/02/07 03:38:31;;;;;;;159.50;74.40;;;;;;;-13.21;68.92;99411.36;108227;1259;96048;-75
2023/02/07 03:41:10;;;;;;;160.80;77.80;;;;;;;-13.16;69.11;99412.17;108260;1260;112048;-75
2023/02/07 03:43:40;;;;;;;144.20;65.40;;;;;;;-13.10;69.06;99418.14;108338;1254;101028;-74
2023/02/07 03:46:10;;;;;;;128.70;59.80;;;;;;;-13.04;69.23;99425.00;108633;1251;108503;-74
2023/02/07 03:48:38;;;;;;;128.50;63.00;;;;;;;-12.98;69.28;99425.10;108599;1251;95745;-75
2023/02/07 03:51:06;;;;;;;141.70;67.60;;;;;;;-12.93;69.21;99422.96;108905;1251;96131;-74
2023/02/07 03:53:35;;;;;;;139.40;67.30;;;;;;;-12.86;69.39;99421.84;108835;1251;112409;-74
2023/02/07 03:56:03;;;;;;;120.20;58.70;;;;;;;-12.79;69.47;99417.08;108906;1250;108415;-75
2023/02/07 03:58:31;;;;;;;123.40;59.10;;;;;;;-12.71;69.49;99416.80;108664;1251;108009;-75
2023/02/07 04:00:59;;;;;;;112.20;55.00;;;;;;;-12.66;69.49;99412.38;108832;1251;95657;-74
2023/02/07 04:03:27;;;;;;;120.00;60.00;;;;;;;-12.61;69.69;99418.58;108848;1251;96081;-75
2023/02/07 04:05:55;;;;;;;145.50;72.00;;;;;;;-12.57;69.54;99411.94;108887;1251;112073;-75
2023/02/07 04:08:23;;;;;;;134.70;65.40;;;;;;;-12.53;69.59;99406.66;108892;1251;109655;-74
2023/02/07 04:11:02;;;;;;;156.40;77.30;;;;;;;-12.51;69.67;99412.02;108807;1251;108698;-75
2023/02/07 04:13:30;;;;;;;140.20;67.30;;;;;;;-12.48;69.73;99406.43;108811;1251;95911;-74
2023/02/07 04:15:58;;;;;;;121.10;59.60;;;;;;;-12.43;69.86;99398.54;108865;1251;97122;-76
2023/02/07 04:18:27;;;;;;;109.60;57.40;;;;;;;-12.39;69.73;99401.09;108879;1251;111675;-76
2023/02/07 04:21:06;;;;;;;108.40;53.70;;;;;;;-12.36;69.86;99404.53;108861;1250;109630;-75
2023/02/07 04:23:35;;;;;;;101.30;51.40;;;;;;;-12.34;69.77;99398.77;108857;1251;99852;-75
2023/02/07 04:26:04;;;;;;;119.20;55.90;;;;;;;-12.31;69.75;99402.01;108863;1251;95541;-74
2023/02/07 04:28:32;;;;;;;129.50;62.00;;;;;;;-12.25;70.00;99398.64;108634;1252;96029;-74
2023/02/07 04:31:00;;;;;;;145.50;66.70;;;;;;;-12.20;69.96;99393.88;108635;1251;111328;-75
2023/02/07 04:33:29;;;;;;;143.00;68.60;;;;;;;-12.19;69.99;99394.20;108857;1251;109870;-75
2023/02/07 04:35:59;;;;;;;143.50;69.10;;;;;;;-12.14;70.10;99387.19;108873;1251;108807;-76
2023/02/07 04:38:28;;;;;;;137.00;65.10;;;;;;;-12.10;70.22;99387.99;108870;1251;95913;-74
2023/02/07 04:41:02;;;;;;;207.30;100.00;;;;;;;-12.05;70.33;99396.40;108868;1251;95999;-74
2023/02/07 04:43:32;;;;;;;231.30;107.80;;;;;;;-12.00;70.25;99395.29;108881;1251;103818;-76
2023/02/07 04:46:01;;;;;;;229.80;108.80;;;;;;;-11.95;70.31;99401.29;108887;1251;101211;-74
2023/02/07 04:48:29;;;;;;;240.70;112.80;;;;;;;-11.91;70.35;99404.17;108870;1251;108359;-75
2023/02/07 04:50:57;;;;;;;237.70;114.00;;;;;;;-11.85;70.52;99407.75;108865;1251;95578;-76
2023/02/07 04:53:25;;;;;;;234.60;110.50;;;;;;;-11.81;70.48;99409.91;108852;1251;96000;-74
2023/02/07 04:55:54;;;;;;;251.90;117.40;;;;;;;-11.75;70.64;99413.29;108870;1251;112127;-74
2023/02/07 04:58:23;;;;;;;243.30;114.00;;;;;;;-11.71;70.49;99407.12;108914;1250;108840;-75
2023/02/07 05:00:53;;;;;;;211.30;100.30;;;;;;;-11.66;70.55;99410.84;108600;1253;108526;-75
2023/02/07 05:03:21;;;;;;;210.30;94.10;;;;;;;-11.58;70.76;99406.70;108790;1254;95914;-75
2023/02/07 05:05:49;;;;;;;203.90;95.10;;;;;;;-11.52;70.66;99400.00;108872;1251;96015;-76
2023/02/07 05:08:17;;;;;;;203.40;93.10;;;;;;;-11.49;70.69;99393.88;108869;1250;111163;-75
2023/02/07 05:10:46;;;;;;;197.00;89.60;;;;;;;-11.44;70.62;99390.11;108813;1251;108913;-74
2023/02/07 05:13:14;;;;;;;183.10;85.80;;;;;;;-11.38;70.75;99394.90;108884;1251;108465;-76
2023/02/07 05:15:42;;;;;;;182.30;88.20;;;;;;;-11.35;70.75;99401.08;108611;1251;95815;-74
2023/02/07 05:18:11;;;;;;;184.50;88.30;;;;;;;-11.31;70.74;99410.39;108875;1251;96168;-74
2023/02/07 05:20:39;;;;;;;187.30;86.30;;;;;;;-11.28;70.55;99407.39;108888;1251;111733;-74
2023/02/07 05:23:07;;;;;;;207.60;96.40;;;;;;;-11.30;70.66;99405.34;108662;1252;110695;-75
2023/02/07 05:25:35;;;;;;;189.80;94.30;;;;;;;-11.30;70.64;99411.41;108607;1251;108573;-75
2023/02/07 05:28:06;;;;;;;202.40;95.50;;;;;;;-11.27;70.62;99414.52;108881;1251;95537;-75
2023/02/07 05:30:34;;;;;;;184.50;90.20;;;;;;;-11.25;70.62;99415.34;108922;1251;96004;-76
2023/02/07 05:33:05;;;;;;;183.00;91.30;;;;;;;-11.24;70.82;99412.72;108693;1254;112480;-75
2023/02/07 05:35:53;;;;;;;185.20;90.50;;;;;;;-11.20;70.73;99414.72;108947;1251;110114;-74
2023/02/07 05:38:21;;;;;;;180.60;88.10;;;;;;;-11.19;70.78;99415.03;108221;1259;99830;-74
2023/02/07 05:40:49;;;;;;;166.30;84.30;;;;;;;-11.20;70.90;99418.02;108236;1259;96001;-76
2023/02/07 05:43:18;;;;;;;160.20;82.30;;;;;;;-11.16;70.88;99415.00;108274;1259;96220;-75
2023/02/07 05:45:46;;;;;;;154.20;78.10;;;;;;;-11.11;71.01;99414.05;108260;1259;111942;-75
2023/02/07 05:48:14;;;;;;;140.20;72.00;;;;;;;-11.08;70.95;99408.73;108238;1259;109906;-75
2023/02/07 05:50:42;;;;;;;133.80;66.90;;;;;;;-11.03;71.05;99408.48;108198;1259;108196;-76
2023/02/07 05:53:11;;;;;;;130.30;66.40;;;;;;;-10.99;70.98;99419.52;108222;1259;95751;-76
2023/02/07 05:55:39;;;;;;;140.90;72.30;;;;;;;-10.95;71.02;99416.66;108236;1259;97153;-76
2023/02/07 05:58:07;;;;;;;148.00;74.60;;;;;;;-10.93;70.99;99413.31;108075;1259;111753;-76
2023/02/07 06:00:36;;;;;;;149.10;79.30;;;;;;;-10.89;71.04;99410.83;108267;1259;109835;-76
2023/02/07 06:03:04;;;;;;;165.70;83.40;;;;;;;-10.86;71.02;99417.88;108260;1259;99377;-76
2023/02/07 06:05:33;;;;;;;153.30;80.30;;;;;;;-10.83;71.09;99420.93;108212;1259;96023;-74
2023/02/07 06:08:02;;;;;;;149.50;80.00;;;;;;;-10.79;71.08;99415.64;108258;1259;96092;-74
2023/02/07 06:10:30;;;;;;;150.80;82.90;;;;;;;-10.78;71.11;99416.86;108279;1259;112186;-76
2023/02/07 06:12:58;;;;;;;157.90;82.50;;;;;;;-10.79;71.15;99418.44;108070;1259;110392;-74
2023/02/07 06:15:26;;;;;;;152.60;81.80;;;;;;;-10.78;71.27;99417.89;108407;1251;108688;-75
2023/02/07 06:17:54;;;;;;;158.30;82.10;;;;;;;-10.73;71.40;99422.66;108855;1251;95568;-74
2023/02/07 06:20:22;;;;;;;212.80;102.90;;;;;;;-10.69;71.31;99422.05;108927;1251;96001;-74
2023/02/07 06:22:51;;;;;;;244.80;115.90;;;;;;;-10.62;71.39;99425.91;108705;1254;111918;-75
2023/02/07 06:25:19;;;;;;;274.40;126.20;;;;;;;-10.57;71.38;99430.67;108407;1251;111212;-76
2023/02/07 06:27:47;;;;;;;262.60;124.90;;;;;;;-10.52;71.45;99422.92;108868;1251;108022;-75
2023/02/07 06:30:15;;;;;;;256.60;122.40;;;;;;;-10.49;71.45;99419.70;108807;1251;95533;-75
2023/02/07 06:32:47;;;;;;;253.10;118.30;;;;;;;-10.46;71.44;99423.83;108899;1251;95967;-74
2023/02/07 06:35:15;;;;;;;188.90;93.50;;;;;;;-10.43;71.55;99429.86;108894;1251;103180;-76
2023/02/07 06:37:43;;;;;;;207.10;101.70;;;;;;;-10.39;71.63;99430.98;108645;1251;109865;-74
2023/02/07 06:40:11;;;;;;;177.80;88.10;;;;;;;-10.34;71.60;99433.14;108854;1251;108446;-75
2023/02/07 06:42:39;;;;;;;178.40;92.60;;;;;;;-10.31;71.62;99436.73;108854;1251;95591;-74
2023/02/07 06:45:08;;;;;;;184.80;103.70;;;;;;;-10.29;71.76;99433.73;108682;1251;96043;-77
2023/02/07 06:47:36;;;;;;;153.50;87.40;;;;;;;-10.24;71.74;99429.24;108916;1251;111228;-75
2023/02/07 06:50:04;;;;;;;158.50;96.20;;;;;;;-10.18;71.62;99427.20;108839;1251;109066;-75
2023/02/07 06:52:33;;;;;;;154.60;93.00;;;;;;;-10.14;71.71;99424.30;108691;1253;108437;-74
2023/02/07 06:55:01;;;;;;;159.70;92.90;;;;;;;-10.11;71.52;99426.14;108807;1251;95660;-76
2023/02/07 06:57:29;;;;;;;156.40;90.60;;;;;;;-10.06;71.58;99425.88;108600;1252;96078;-73
2023/02/07 06:59:57;;;;;;;157.70;92.10;;;;;;;-10.01;71.71;99415.65;108902;1251;111635;-75
2023/02/07 07:02:25;;;;;;;161.90;97.70;;;;;;;-9.95;71.71;99419.69;108885;1251;109977;-74
2023/02/07 07:04:53;;;;;;;163.80;97.40;;;;;;;-9.89;71.73;99421.97;108643;1251;108444;-75
2023/02/07 07:07:22;;;;;;;166.30;95.10;;;;;;;-9.85;71.79;99422.05;108858;1251;95541;-74
2023/02/07 07:09:50;;;;;;;161.70;94.10;;;;;;;-9.79;71.93;99420.16;108912;1251;96043;-76
2023/02/07 07:12:18;;;;;;;171.80;102.10;;;;;;;-9.75;71.93;99420.77;108893;1251;111202;-75
2023/02/07 07:14:46;;;;;;;173.10;103.00;;;;;;;-9.72;71.79;99425.23;108925;1251;101387;-74
2023/02/07 07:17:15;;;;;;;186.40;107.20;;;;;;;-9.68;71.86;99422.36;108645;1251;108423;-75
2023/02/07 07:19:43;;;;;;;183.50;106.70;;;;;;;-9.64;71.95;99418.77;108819;1251;96090;-74
2023/02/07 07:22:11;;;;;;;212.90;122.70;;;;;;;-9.58;71.95;99423.50;108874;1251;95833;-73
2023/02/07 07:24:39;;;;;;;238.90;137.60;;;;;;;-9.50;72.07;99424.15;108936;1250;112287;-74
2023/02/07 07:27:08;;;;;;;293.30;165.60;;;;;;;-9.41;72.07;99425.14;108881;1251;109849;-73
2023/02/07 07:29:36;;;;;;;269.10;149.00;;;;;;;-9.33;72.02;99421.80;108880;1251;108030;-74
2023/02/07 07:32:05;;;;;;;262.10;138.00;;;;;;;-9.28;72.02;99419.39;108838;1251;95631;-74
2023/02/07 07:34:33;;;;;;;232.80;127.80;;;;;;;-9.30;71.76;99423.30;108813;1251;96032;-73
2023/02/07 07:37:01;;;;;;;216.30;120.60;;;;;;;-9.29;71.80;99430.95;108890;1251;103531;-75
2023/02/07 07:39:30;;;;;;;225.10;122.60;;;;;;;-9.30;71.79;99426.08;108788;1250;108754;-74
2023/02/07 07:41:58;;;;;;;212.00;116.60;;;;;;;-9.26;71.91;99427.89;108586;1251;108623;-73
2023/02/07 07:44:27;;;;;;;205.30;107.80;;;;;;;-9.18;72.15;99431.35;108633;1252;163971;-76
2023/02/07 07:46:55;;;;;;;193.60;105.90;;;;;;;-9.11;72.17;99424.71;108807;1252;96060;-74
2023/02/07 07:49:23;;;;;;;209.90;116.80;;;;;;;-9.07;72.05;99431.42;108789;1253;103437;-74
2023/02/07 07:51:51;;;;;;;218.60;124.30;;;;;;;-9.10;71.83;99431.48;108774;1253;101038;-75
2023/02/07 07:54:19;;;;;;;233.60;128.80;;;;;;;-9.15;71.80;99431.42;108727;1253;108867;-75
2023/02/07 07:56:47;;;;;;;236.90;132.90;;;;;;;-9.16;71.91;99433.36;108503;1253;95752;-74
2023/02/07 07:59:18;;;;;;;211.70;120.60;;;;;;;-9.09;72.07;99438.11;108478;1254;96106;-73
2023/02/07 08:01:46;;;;;;;156.70;89.70;;;;;;;-9.03;72.08;99437.76;108756;1253;111655;-73
2023/02/07 08:04:15;;;;;;;197.60;115.10;;;;;;;-8.98;71.98;99435.70;108400;1253;109883;-73
2023/02/07 08:06:43;;;;;;;209.80;119.20;;;;;;;-8.98;72.00;99432.73;108675;1253;108430;-74
2023/02/07 08:09:11;;;;;;;197.10;113.60;;;;;;;-8.94;72.12;99430.20;108694;1253;95784;-74
2023/02/07 08:11:39;;;;;;;168.60;93.40;;;;;;;-8.87;72.20;99426.84;108723;1252;96032;-76
2023/02/07 08:14:07;;;;;;;166.10;92.60;;;;;;;-8.78;72.27;99426.60;108749;1253;102632;-73
2023/02/07 08:16:35;;;;;;;161.70;90.10;;;;;;;-8.68;72.19;99420.39;108839;1250;101428;-74
2023/02/07 08:19:06;;;;;;;162.90;89.40;;;;;;;-8.60;72.14;99418.23;108631;1251;100133;-76
2023/02/07 08:21:35;;;;;;;168.10;92.50;;;;;;;-8.51;72.10;99413.44;108897;1251;95541;-74
2023/02/07 08:24:03;;;;;;;186.40;96.50;;;;;;;-8.44;71.97;99408.32;108869;1252;96469;-73
2023/02/07 08:26:31;;;;;;;174.40;92.90;;;;;;;-8.37;71.91;99407.42;108731;1251;111899;-74
2023/02/07 08:28:59;;;;;;;217.00;109.10;;;;;;;-8.34;72.03;99405.95;108816;1253;109812;-75
2023/02/07 08:31:27;;;;;;;225.90;118.70;;;;;;;-8.29;72.17;99406.80;108815;1251;99175;-75
2023/02/07 08:33:55;;;;;;;223.60;118.90;;;;;;;-8.29;72.00;99405.23;108640;1252;95855;-74
2023/02/07 08:36:24;;;;;;;230.60;118.90;;;;;;;-8.34;71.79;99403.31;108604;1254;96429;-74
2023/02/07 08:38:52;;;;;;;217.20;110.30;;;;;;;-8.37;71.76;99392.93;108844;1252;111981;-75
2023/02/07 08:41:20;;;;;;;175.60;93.50;;;;;;;-8.32;72.02;99390.33;108835;1251;101356;-75
2023/02/07 08:43:48;;;;;;;183.60;91.10;;;;;;;-8.29;71.96;99389.86;108855;1251;99717;-74
2023/02/07 08:46:17;;;;;;;188.40;92.50;;;;;;;-8.29;71.93;99389.34;108636;1256;95868;-74
2023/02/07 08:48:45;;;;;;;174.50;89.20;;;;;;;-8.30;71.96;99388.48;108812;1251;96128;-74
2023/02/07 08:51:16;;;;;;;168.70;86.00;;;;;;;-8.27;71.99;99392.60;108885;1250;103304;-75
2023/02/07 08:53:44;;;;;;;166.40;84.90;;;;;;;-8.21;72.02;99390.84;108853;1251;109927;-76
2023/02/07 08:56:13;;;;;;;161.80;85.30;;;;;;;-8.16;71.99;99387.53;108789;1252;108780;-74
2023/02/07 08:58:41;;;;;;;149.80;77.20;;;;;;;-8.10;71.90;99390.86;108814;1251;95800;-75
2023/02/07 09:01:10;;;;;;;145.10;77.50;;;;;;;-8.07;72.12;99392.15;108815;1252;96068;-74
2023/02/07 09:03:38;;;;;;;147.30;77.30;;;;;;;-8.01;72.11;99388.45;108802;1252;112255;-73
2023/02/07 09:06:07;;;;;;;146.80;74.20;;;;;;;-7.93;72.19;99385.23;108813;1252;101231;-75
2023/02/07 09:08:35;;;;;;;139.40;73.10;;;;;;;-7.86;72.08;99388.69;108795;1252;100146;-73
2023/02/07 09:11:03;;;;;;;137.40;72.00;;;;;;;-7.83;71.93;99390.33;108753;1252;95628;-73
2023/02/07 09:13:31;;;;;;;132.00;71.70;;;;;;;-7.79;72.05;99388.09;108820;1252;96089;-74
2023/02/07 09:15:59;;;;;;;134.70;72.20;;;;;;;-7.73;72.03;99393.66;108823;1251;103676;-74
2023/02/07 09:18:28;;;;;;;123.90;64.50;;;;;;;-7.66;72.14;99395.52;108814;1252;101688;-75
2023/02/07 09:20:57;;;;;;;114.80;60.00;;;;;;;-7.59;72.10;99388.14;108800;1252;99246;-75
2023/02/07 09:23:25;;;;;;;118.00;61.40;;;;;;;-7.53;71.97;99390.58;108768;1253;96003;-75
2023/02/07 09:26:02;;;;;;;107.20;54.70;;;;;;;-7.44;72.09;99386.61;108756;1252;96196;-74
2023/02/07 09:28:31;;;;;;;107.00;55.80;;;;;;;-7.36;72.23;99383.14;108777;1252;103417;-74
2023/02/07 09:30:59;;;;;;;122.00;61.80;;;;;;;-7.27;72.21;99376.23;108837;1253;101285;-74
2023/02/07 09:33:28;;;;;;;132.00;65.40;;;;;;;-7.18;72.22;99374.66;108718;1254;99928;-75
2023/02/07 09:35:56;;;;;;;127.00;65.40;;;;;;;-7.10;72.14;99372.63;108738;1252;95578;-76
2023/02/07 09:38:25;;;;;;;113.30;55.30;;;;;;;-7.03;72.02;99372.58;108548;1252;96066;-74
2023/02/07 09:40:56;;;;;;;116.20;57.70;;;;;;;-6.98;71.97;99377.61;108850;1250;102648;-72
2023/02/07 09:43:49;;;;;;;126.70;64.50;;;;;;;-6.91;72.00;99377.38;108835;1252;101053;-74
2023/02/07 09:46:22;;;;;;;134.20;67.90;;;;;;;-6.85;71.97;99372.97;108808;1251;99904;-75
2023/02/07 09:48:59;;;;;;;137.10;65.50;;;;;;;-6.80;71.95;99374.17;108811;1253;95614;-77
2023/02/07 09:51:27;;;;;;;124.10;63.10;;;;;;;-6.75;71.90;99368.73;108651;1252;96059;-73
2023/02/07 09:54:03;;;;;;;128.80;64.60;;;;;;;-6.71;71.93;99363.35;108812;1252;103166;-73
2023/02/07 09:56:34;;;;;;;140.10;71.00;;;;;;;-6.64;72.02;99361.32;108847;1251;101274;-75
2023/02/07 09:59:06;;;;;;;133.80;73.40;;;;;;;-6.56;71.95;99359.11;108859;1251;99749;-75
2023/02/07 10:01:48;;;;;;;128.80;66.30;;;;;;;-6.51;71.93;99358.70;108811;1251;95608;-72
2023/02/07 10:04:19;;;;;;;136.70;67.20;;;;;;;-6.46;71.96;99357.31;108860;1251;96123;-74
2023/02/07 10:06:55;;;;;;;129.00;67.50;;;;;;;-6.43;71.94;99364.39;108883;1251;103494;-75
2023/02/07 10:09:38;;;;;;;131.10;69.30;;;;;;;-6.42;71.95;99366.45;108892;1251;101355;-73
2023/02/07 10:12:28;;;;;;;128.10;64.80;;;;;;;-6.42;71.93;99357.50;108873;1251;100134;-73
2023/02/07 10:15:05;;;;;;;129.10;66.50;;;;;;;-6.39;72.13;99351.77;108847;1251;95737;-74
2023/02/07 10:18:29;;;;;;;121.20;63.10;;;;;;;-6.32;72.15;99350.62;108803;1251;96112;-74
2023/02/07 10:21:19;;;;;;;123.60;63.70;;;;;;;-6.26;72.18;99360.18;108307;1259;103575;-74
2023/02/07 10:24:19;;;;;;;118.50;61.00;;;;;;;-6.21;72.19;99351.92;108290;1258;101391;-76
2023/02/07 10:27:03;;;;;;;135.60;68.90;;;;;;;-6.15;72.25;99347.86;108279;1259;98970;-73
2023/02/07 10:29:57;;;;;;;146.40;71.60;;;;;;;-6.12;72.17;99345.29;108266;1258;95780;-76
2023/02/07 10:32:33;;;;;;;134.00;66.90;;;;;;;-6.09;72.14;99346.23;108313;1258;96190;-76
2023/02/07 10:35:20;;;;;;;128.00;64.00;;;;;;;-6.06;72.22;99351.74;108260;1259;103579;-76
2023/02/07 10:37:53;;;;;;;125.90;63.10;;;;;;;-6.04;72.40;99349.38;108310;1259;101270;-75
2023/02/07 10:40:35;;;;;;;132.20;62.90;;;;;;;-6.00;72.46;99350.42;108285;1259;99970;-73
2023/02/07 10:43:11;;;;;;;100.00;49.40;;;;;;;-5.94;72.42;99345.80;108280;1259;95659;-75
2023/02/07 10:45:42;;;;;;;124.70;61.80;;;;;;;-5.87;72.44;99349.52;108250;1258;96100;-73
2023/02/07 10:48:15;;;;;;;109.70;57.10;;;;;;;-5.81;72.43;99347.33;108313;1258;103569;-76
2023/02/07 10:50:43;;;;;;;114.20;56.00;;;;;;;-5.76;72.32;99347.63;108312;1258;101310;-75
2023/02/07 10:53:44;;;;;;;107.40;51.90;;;;;;;-5.71;72.38;99349.75;108119;1259;99928;-74
2023/02/07 10:56:33;;;;;;;107.80;53.30;;;;;;;-5.66;72.36;99348.61;108831;1251;95551;-76
2023/02/07 10:59:01;;;;;;;110.90;54.80;;;;;;;-5.60;72.30;99341.35;108733;1251;96093;-74
2023/02/07 11:01:33;;;;;;;104.30;53.50;;;;;;;-5.55;72.30;99339.73;108854;1251;103087;-74
2023/02/07 11:04:01;;;;;;;105.10;52.10;;;;;;;-5.49;72.44;99341.95;108880;1251;101988;-74
2023/02/07 11:06:34;;;;;;;116.00;56.40;;;;;;;-5.45;72.34;99344.22;108860;1251;99935;-75
2023/02/07 11:09:13;;;;;;;111.40;55.30;;;;;;;-5.39;72.37;99348.02;108829;1251;95799;-74
2023/02/07 11:11:42;;;;;;;101.50;52.60;;;;;;;-5.35;72.41;99341.55;108834;1251;96020;-77